x

Shp - Shell Point, Fl (shpf1) Weather Station

10:54pm - Fri 9th Dec 2016 All times are CST. -6 hours from GMT.

  • Wind
    7mph, 10mph gusts
  • Air Temp 39°f
  • Sea Pressure 1029.6mb
  • Shp - Shell Point, Fl
  • Shp - Shell Point, Fl

More Historic Weather Station data

Upgrade to MSW Pro to gain access to the past 30 days of data for over 8000 Wavebouys and Weather Stations around the globe.

Join Pro

Comparision Forecast

View Surf forecast
   
Fri 12/09 10:54pm 7 10 mph 1029.6mb 39f
10:48pm 6 9 mph 1029.6mb 39f
9:54pm 7 8 mph 1029.7mb 41f
9:48pm 6 8 mph 1029.7mb 41f
8:54pm 6 8 mph 1029.4mb 42f
8:48pm 6 8 mph 1029.4mb 42f
7:54pm 7 10 mph 1029.7mb 45f
7:48pm 8 10 mph 1029.6mb 45f
6:54pm 8 10 mph 1028.9mb 46f
6:48pm 8 10 mph 1028.9mb 46f
5:54pm 7 9 mph 1028.7mb 48f
5:48pm 6 8 mph 1028.7mb 48f
4:54pm 5 7 mph 1028.1mb 51f
4:48pm 7 9 mph 1028mb 51f
3:54pm 9 15 mph 1027.5mb 55f
3:48pm 8 13 mph 1027.4mb 55f
2:54pm 9 14 mph 1026.7mb 56f
2:48pm 9 14 mph 1026.6mb 56f
1:54pm 9 15 mph 1026.5mb 56f
1:48pm 8 15 mph 1026.5mb 56f
12:54pm 6 13 mph 1026.6mb 54f
12:48pm 8 11 mph 1026.7mb 55f
11:54am 8 15 mph 1027.8mb 53f
11:48am 7 13 mph 1027.9mb 53f
10:54am 7 16 mph 1029.2mb 51f
10:48am 9 18 mph 1029.3mb 50f
9:54am 9 17 mph 1029.6mb 48f
9:48am 10 14 mph 1029.7mb 48f
8:54am 13 17 mph 1030.2mb 45f
8:48am 10 16 mph 1030.3mb 45f
7:54am 8 11 mph 1029.8mb 43f
7:48am 8 13 mph 1029.7mb 43f
Thu 12/08 10:54pm 13 18 mph 1025.8mb 53f
10:48pm 11 16 mph 1026mb 53f
9:54pm 10 16 mph 1025.9mb 54f
9:48pm 11 20 mph 1025.7mb 54f
8:54pm 9 14 mph 1025.1mb 55f
8:48pm 10 14 mph 1024.9mb 55f
7:54pm 8 13 mph 1024.2mb 56f
7:48pm 9 13 mph 1023.9mb 56f
6:54pm 7 10 mph 1023.7mb 56f
6:48pm 8 11 mph 1023.6mb 56f
5:54pm 7 10 mph 1023.1mb 57f
5:48pm 7 9 mph 1023.1mb 58f
4:54pm 7 9 mph 1022.4mb 59f
4:48pm 6 8 mph 1022.4mb 59f
3:54pm 8 11 mph 1021.7mb 61f
3:48pm 8 14 mph 1021.6mb 61f
2:54pm 11 18 mph 1021.4mb 62f
2:48pm 13 16 mph 1021.4mb 62f
1:54pm 9 14 mph 1020.8mb 62f
1:48pm 10 16 mph 1020.8mb 62f
12:54pm 14 20 mph 1020.8mb 62f
12:48pm 10 18 mph 1020.9mb 62f
11:54am 10 18 mph 1021.5mb 60f
11:48am 11 17 mph 1021.5mb 60f
10:54am 8 13 mph 1021.9mb 57f
10:48am 9 14 mph 1022.1mb 56f
9:54am 9 13 mph 1022.8mb 54f
9:48am 9 14 mph 1022.9mb 54f
8:54am 8 13 mph 1022.5mb 52f
8:48am 9 14 mph 1022.4mb 52f
7:54am 7 8 mph 1022.3mb 51f
7:48am 6 8 mph 1022.3mb 51f
6:54am 3 6 mph 1022.1mb 48f
6:48am 3 5 mph 1022.1mb 47f
Wed 12/07 10:54pm 6 7 mph 1020.1mb 53f
10:48pm 5 7 mph 1020.1mb 53f
9:54pm 6 7 mph 1020mb 54f
9:48pm 5 7 mph 1019.9mb 54f
8:54pm 5 6 mph 1019.4mb 56f
8:48pm 5 6 mph 1019.4mb 56f
7:54pm 2 5 mph 1019mb 58f
7:48pm 2 5 mph 1018.9mb 58f
6:54pm 2 3 mph 1018.9mb 59f
6:48pm 2 3 mph 1018.9mb 59f
5:54pm 3 5 mph 1018.4mb 60f
5:48pm 3 5 mph 1018.4mb 60f
4:54pm 2 5 mph 1017.8mb 61f
4:48pm 3 5 mph 1017.8mb 62f
3:54pm 6 8 mph 1017.1mb 64f
3:48pm 6 8 mph 1017.1mb 64f
2:54pm 8 11 mph 1017.1mb 65f
2:48pm 7 10 mph 1017.2mb 65f
1:54pm 8 13 mph 1016.9mb 66f
1:48pm 9 13 mph 1016.9mb 66f
12:54pm 7 14 mph 1016.9mb 66f
12:48pm 7 10 mph 1016.9mb 67f
11:54am 6 10 mph 1017.3mb 65f
11:48am 7 9 mph 1017.4mb 65f
10:54am 8 11 mph 1018.1mb 65f
10:48am 7 11 mph 1018.2mb 65f
9:54am 3 7 mph 1018.4mb 63f
9:48am 2 5 mph 1018.3mb 63f
8:54am 6 8 mph 1018.2mb 60f
8:48am 6 8 mph 1018.2mb 60f
7:54am 6 8 mph 1017.8mb 57f
7:48am 6 8 mph 1017.8mb 56f